sensor_id;sensor_type;location;lat;lon;timestamp;temperature;humidity
15455;DHT22;21057;51.024;7.540;2023-05-06T00:02:18;13.80;99.90
15455;DHT22;21057;51.024;7.540;2023-05-06T00:04:44;13.90;99.90
15455;DHT22;21057;51.024;7.540;2023-05-06T00:07:12;13.90;99.90
15455;DHT22;21057;51.024;7.540;2023-05-06T00:09:38;14.00;99.90
15455;DHT22;21057;51.024;7.540;2023-05-06T00:12:05;14.00;99.90
15455;DHT22;21057;51.024;7.540;2023-05-06T00:14:33;13.90;99.90
15455;DHT22;21057;51.024;7.540;2023-05-06T00:17:00;13.90;99.90
15455;DHT22;21057;51.024;7.540;2023-05-06T00:19:27;14.00;99.90
15455;DHT22;21057;51.024;7.540;2023-05-06T00:21:54;14.00;99.90
15455;DHT22;21057;51.024;7.540;2023-05-06T00:24:21;13.90;99.90
15455;DHT22;21057;51.024;7.540;2023-05-06T00:26:48;14.00;99.90
15455;DHT22;21057;51.024;7.540;2023-05-06T00:29:15;14.00;99.90
15455;DHT22;21057;51.024;7.540;2023-05-06T00:31:43;14.00;99.90
15455;DHT22;21057;51.024;7.540;2023-05-06T00:34:10;14.00;99.90
15455;DHT22;21057;51.024;7.540;2023-05-06T00:36:37;14.00;99.90
15455;DHT22;21057;51.024;7.540;2023-05-06T00:39:04;14.10;99.90
15455;DHT22;21057;51.024;7.540;2023-05-06T00:41:31;14.00;99.90
15455;DHT22;21057;51.024;7.540;2023-05-06T00:43:58;14.10;99.90
15455;DHT22;21057;51.024;7.540;2023-05-06T00:46:25;14.10;99.90
15455;DHT22;21057;51.024;7.540;2023-05-06T00:48:54;14.20;99.90
15455;DHT22;21057;51.024;7.540;2023-05-06T00:51:21;14.10;99.90
15455;DHT22;21057;51.024;7.540;2023-05-06T00:53:49;14.10;99.90
15455;DHT22;21057;51.024;7.540;2023-05-06T00:56:16;14.20;99.90
15455;DHT22;21057;51.024;7.540;2023-05-06T00:58:43;14.10;99.90
15455;DHT22;21057;51.024;7.540;2023-05-06T01:01:10;14.10;99.90
15455;DHT22;21057;51.024;7.540;2023-05-06T01:03:37;14.10;99.90
15455;DHT22;21057;51.024;7.540;2023-05-06T01:06:13;14.10;99.90
15455;DHT22;21057;51.024;7.540;2023-05-06T01:08:47;14.10;99.90
15455;DHT22;21057;51.024;7.540;2023-05-06T01:11:21;14.10;99.90
15455;DHT22;21057;51.024;7.540;2023-05-06T01:13:54;14.20;99.90
15455;DHT22;21057;51.024;7.540;2023-05-06T01:16:23;14.20;99.90
15455;DHT22;21057;51.024;7.540;2023-05-06T01:18:51;14.10;99.90
15455;DHT22;21057;51.024;7.540;2023-05-06T01:21:21;14.10;99.90
15455;DHT22;21057;51.024;7.540;2023-05-06T01:23:54;14.10;99.90
15455;DHT22;21057;51.024;7.540;2023-05-06T01:26:22;14.10;99.90
15455;DHT22;21057;51.024;7.540;2023-05-06T01:28:49;14.10;99.90
15455;DHT22;21057;51.024;7.540;2023-05-06T01:31:23;14.20;99.90
15455;DHT22;21057;51.024;7.540;2023-05-06T01:33:58;14.10;99.90
15455;DHT22;21057;51.024;7.540;2023-05-06T01:36:33;14.10;99.90
15455;DHT22;21057;51.024;7.540;2023-05-06T01:39:09;14.10;99.90
15455;DHT22;21057;51.024;7.540;2023-05-06T01:41:39;14.00;99.90
15455;DHT22;21057;51.024;7.540;2023-05-06T01:44:07;14.00;99.90
15455;DHT22;21057;51.024;7.540;2023-05-06T01:46:34;14.00;99.90
15455;DHT22;21057;51.024;7.540;2023-05-06T01:49:03;14.00;99.90
15455;DHT22;21057;51.024;7.540;2023-05-06T01:51:32;13.90;99.90
15455;DHT22;21057;51.024;7.540;2023-05-06T01:53:59;13.80;99.90
15455;DHT22;21057;51.024;7.540;2023-05-06T01:56:27;13.70;99.90
15455;DHT22;21057;51.024;7.540;2023-05-06T01:58:55;13.80;99.90
15455;DHT22;21057;51.024;7.540;2023-05-06T02:01:22;13.90;99.90
15455;DHT22;21057;51.024;7.540;2023-05-06T02:03:49;13.70;99.90
15455;DHT22;21057;51.024;7.540;2023-05-06T02:06:16;13.70;99.90
15455;DHT22;21057;51.024;7.540;2023-05-06T02:08:43;13.70;99.90
15455;DHT22;21057;51.024;7.540;2023-05-06T02:11:10;13.80;99.90
15455;DHT22;21057;51.024;7.540;2023-05-06T02:13:38;13.80;99.90
15455;DHT22;21057;51.024;7.540;2023-05-06T02:16:05;13.80;99.90
15455;DHT22;21057;51.024;7.540;2023-05-06T02:18:33;13.70;99.90
15455;DHT22;21057;51.024;7.540;2023-05-06T02:21:00;13.70;99.90
15455;DHT22;21057;51.024;7.540;2023-05-06T02:23:27;13.70;99.90
15455;DHT22;21057;51.024;7.540;2023-05-06T02:25:54;13.60;99.90
15455;DHT22;21057;51.024;7.540;2023-05-06T02:28:22;13.60;99.90
15455;DHT22;21057;51.024;7.540;2023-05-06T02:30:54;13.60;99.90
15455;DHT22;21057;51.024;7.540;2023-05-06T02:33:21;13.60;99.90
15455;DHT22;21057;51.024;7.540;2023-05-06T02:35:48;13.70;99.90
15455;DHT22;21057;51.024;7.540;2023-05-06T02:38:15;13.60;99.90
15455;DHT22;21057;51.024;7.540;2023-05-06T02:40:42;13.60;99.90
15455;DHT22;21057;51.024;7.540;2023-05-06T02:43:08;13.50;99.90
15455;DHT22;21057;51.024;7.540;2023-05-06T02:45:35;13.60;99.90
15455;DHT22;21057;51.024;7.540;2023-05-06T02:48:04;13.50;99.90
15455;DHT22;21057;51.024;7.540;2023-05-06T02:50:31;13.50;99.90
15455;DHT22;21057;51.024;7.540;2023-05-06T02:52:58;13.50;99.90
15455;DHT22;21057;51.024;7.540;2023-05-06T02:55:24;13.60;99.90
15455;DHT22;21057;51.024;7.540;2023-05-06T02:57:51;13.60;99.90
15455;DHT22;21057;51.024;7.540;2023-05-06T03:00:18;13.50;99.90
15455;DHT22;21057;51.024;7.540;2023-05-06T03:02:48;13.40;99.90
15455;DHT22;21057;51.024;7.540;2023-05-06T03:05:16;13.30;99.90
15455;DHT22;21057;51.024;7.540;2023-05-06T03:07:43;13.30;99.90
15455;DHT22;21057;51.024;7.540;2023-05-06T03:10:10;13.40;99.90
15455;DHT22;21057;51.024;7.540;2023-05-06T03:12:37;13.30;99.90
15455;DHT22;21057;51.024;7.540;2023-05-06T03:15:05;13.20;99.90
15455;DHT22;21057;51.024;7.540;2023-05-06T03:17:32;13.20;99.90
15455;DHT22;21057;51.024;7.540;2023-05-06T03:20:00;13.30;99.90
15455;DHT22;21057;51.024;7.540;2023-05-06T03:22:28;13.30;99.90
15455;DHT22;21057;51.024;7.540;2023-05-06T03:24:55;13.20;99.90
15455;DHT22;21057;51.024;7.540;2023-05-06T03:27:21;13.20;99.90
15455;DHT22;21057;51.024;7.540;2023-05-06T03:29:48;13.20;99.90
15455;DHT22;21057;51.024;7.540;2023-05-06T03:32:15;13.10;99.90
15455;DHT22;21057;51.024;7.540;2023-05-06T03:34:42;13.00;99.90
15455;DHT22;21057;51.024;7.540;2023-05-06T03:37:09;13.00;99.90
15455;DHT22;21057;51.024;7.540;2023-05-06T03:39:37;13.00;99.90
15455;DHT22;21057;51.024;7.540;2023-05-06T03:42:04;13.00;99.90
15455;DHT22;21057;51.024;7.540;2023-05-06T03:44:30;12.90;99.90
15455;DHT22;21057;51.024;7.540;2023-05-06T03:46:57;13.00;99.90
15455;DHT22;21057;51.024;7.540;2023-05-06T03:49:24;12.90;99.90
15455;DHT22;21057;51.024;7.540;2023-05-06T03:51:51;13.00;99.90
15455;DHT22;21057;51.024;7.540;2023-05-06T03:54:18;13.00;99.90
15455;DHT22;21057;51.024;7.540;2023-05-06T03:56:47;12.90;99.90
15455;DHT22;21057;51.024;7.540;2023-05-06T03:59:13;12.80;99.90
15455;DHT22;21057;51.024;7.540;2023-05-06T04:01:40;12.90;99.90
15455;DHT22;21057;51.024;7.540;2023-05-06T04:04:07;12.80;99.90
15455;DHT22;21057;51.024;7.540;2023-05-06T04:06:34;12.80;99.90
15455;DHT22;21057;51.024;7.540;2023-05-06T04:09:01;12.90;99.90
15455;DHT22;21057;51.024;7.540;2023-05-06T04:11:28;12.90;99.90
15455;DHT22;21057;51.024;7.540;2023-05-06T04:13:56;12.90;99.90
15455;DHT22;21057;51.024;7.540;2023-05-06T04:16:23;12.90;99.90
15455;DHT22;21057;51.024;7.540;2023-05-06T04:18:51;12.80;99.90
15455;DHT22;21057;51.024;7.540;2023-05-06T04:21:17;12.70;99.90
15455;DHT22;21057;51.024;7.540;2023-05-06T04:23:44;12.70;99.90
15455;DHT22;21057;51.024;7.540;2023-05-06T04:26:11;12.80;99.90
15455;DHT22;21057;51.024;7.540;2023-05-06T04:28:38;12.80;99.90
15455;DHT22;21057;51.024;7.540;2023-05-06T04:31:06;12.80;99.90
15455;DHT22;21057;51.024;7.540;2023-05-06T04:33:35;12.70;99.90
15455;DHT22;21057;51.024;7.540;2023-05-06T04:36:01;12.70;99.90
15455;DHT22;21057;51.024;7.540;2023-05-06T04:38:28;12.70;99.90
15455;DHT22;21057;51.024;7.540;2023-05-06T04:40:56;12.70;99.90
15455;DHT22;21057;51.024;7.540;2023-05-06T04:43:24;12.70;99.90
15455;DHT22;21057;51.024;7.540;2023-05-06T04:45:52;12.80;99.90
15455;DHT22;21057;51.024;7.540;2023-05-06T04:48:21;12.80;99.90
15455;DHT22;21057;51.024;7.540;2023-05-06T04:50:48;12.70;99.90
15455;DHT22;21057;51.024;7.540;2023-05-06T04:53:15;12.80;99.90
15455;DHT22;21057;51.024;7.540;2023-05-06T04:55:42;12.80;99.90
15455;DHT22;21057;51.024;7.540;2023-05-06T04:58:09;12.80;99.90
15455;DHT22;21057;51.024;7.540;2023-05-06T05:00:36;12.80;99.90
15455;DHT22;21057;51.024;7.540;2023-05-06T05:03:03;12.90;99.90
15455;DHT22;21057;51.024;7.540;2023-05-06T05:05:32;12.90;99.90
15455;DHT22;21057;51.024;7.540;2023-05-06T05:07:59;12.80;99.90
15455;DHT22;21057;51.024;7.540;2023-05-06T05:10:26;12.90;99.90
15455;DHT22;21057;51.024;7.540;2023-05-06T05:12:53;12.90;99.90
15455;DHT22;21057;51.024;7.540;2023-05-06T05:15:20;13.00;99.90
15455;DHT22;21057;51.024;7.540;2023-05-06T05:17:47;13.00;99.90
15455;DHT22;21057;51.024;7.540;2023-05-06T05:20:13;13.00;99.90
15455;DHT22;21057;51.024;7.540;2023-05-06T05:22:42;13.00;99.90
15455;DHT22;21057;51.024;7.540;2023-05-06T05:25:09;13.00;99.90
15455;DHT22;21057;51.024;7.540;2023-05-06T05:27:35;13.10;99.90
15455;DHT22;21057;51.024;7.540;2023-05-06T05:30:03;13.10;99.90
15455;DHT22;21057;51.024;7.540;2023-05-06T05:32:30;13.10;99.90
15455;DHT22;21057;51.024;7.540;2023-05-06T05:34:56;13.10;99.90
15455;DHT22;21057;51.024;7.540;2023-05-06T05:37:23;13.20;99.90
15455;DHT22;21057;51.024;7.540;2023-05-06T05:39:51;13.20;99.90
15455;DHT22;21057;51.024;7.540;2023-05-06T05:42:18;13.30;99.90
15455;DHT22;21057;51.024;7.540;2023-05-06T05:44:45;13.40;99.90
15455;DHT22;21057;51.024;7.540;2023-05-06T05:47:13;13.40;99.90
15455;DHT22;21057;51.024;7.540;2023-05-06T05:49:39;13.50;99.90
15455;DHT22;21057;51.024;7.540;2023-05-06T05:52:06;13.50;99.90
15455;DHT22;21057;51.024;7.540;2023-05-06T05:54:34;13.70;99.90
15455;DHT22;21057;51.024;7.540;2023-05-06T05:57:03;13.80;99.90
15455;DHT22;21057;51.024;7.540;2023-05-06T05:59:30;13.80;99.90
15455;DHT22;21057;51.024;7.540;2023-05-06T06:01:57;13.90;99.90
15455;DHT22;21057;51.024;7.540;2023-05-06T06:04:24;14.00;99.90
15455;DHT22;21057;51.024;7.540;2023-05-06T06:06:51;14.00;99.90
15455;DHT22;21057;51.024;7.540;2023-05-06T06:09:18;14.10;99.90
15455;DHT22;21057;51.024;7.540;2023-05-06T06:11:45;14.10;99.90
15455;DHT22;21057;51.024;7.540;2023-05-06T06:14:13;14.20;99.90
15455;DHT22;21057;51.024;7.540;2023-05-06T06:16:40;14.30;99.90
15455;DHT22;21057;51.024;7.540;2023-05-06T06:19:07;14.30;99.90
15455;DHT22;21057;51.024;7.540;2023-05-06T06:21:33;14.40;99.90
15455;DHT22;21057;51.024;7.540;2023-05-06T06:24:00;14.50;99.90
15455;DHT22;21057;51.024;7.540;2023-05-06T06:26:27;14.50;99.90
15455;DHT22;21057;51.024;7.540;2023-05-06T06:28:54;14.60;99.90
15455;DHT22;21057;51.024;7.540;2023-05-06T06:31:22;14.90;99.90
15455;DHT22;21057;51.024;7.540;2023-05-06T06:33:49;15.10;99.90
15455;DHT22;21057;51.024;7.540;2023-05-06T06:36:17;15.10;99.90
15455;DHT22;21057;51.024;7.540;2023-05-06T06:38:44;15.20;99.90
15455;DHT22;21057;51.024;7.540;2023-05-06T06:41:10;15.30;99.90
15455;DHT22;21057;51.024;7.540;2023-05-06T06:43:37;15.30;99.90
15455;DHT22;21057;51.024;7.540;2023-05-06T06:46:04;15.30;99.90
15455;DHT22;21057;51.024;7.540;2023-05-06T06:48:32;15.30;99.90
15455;DHT22;21057;51.024;7.540;2023-05-06T06:50:59;15.30;99.90
15455;DHT22;21057;51.024;7.540;2023-05-06T06:53:26;15.50;99.90
15455;DHT22;21057;51.024;7.540;2023-05-06T06:55:52;15.50;99.90
15455;DHT22;21057;51.024;7.540;2023-05-06T06:58:19;15.50;99.90
15455;DHT22;21057;51.024;7.540;2023-05-06T07:00:46;15.50;99.90
15455;DHT22;21057;51.024;7.540;2023-05-06T07:03:13;15.30;99.90
15455;DHT22;21057;51.024;7.540;2023-05-06T07:05:45;15.40;99.90
15455;DHT22;21057;51.024;7.540;2023-05-06T07:08:12;15.40;99.90
15455;DHT22;21057;51.024;7.540;2023-05-06T07:10:38;15.50;99.90
15455;DHT22;21057;51.024;7.540;2023-05-06T07:13:06;15.50;99.90
15455;DHT22;21057;51.024;7.540;2023-05-06T07:15:33;15.70;99.90
15455;DHT22;21057;51.024;7.540;2023-05-06T07:17:59;15.80;99.90
15455;DHT22;21057;51.024;7.540;2023-05-06T07:20:26;16.00;99.90
15455;DHT22;21057;51.024;7.540;2023-05-06T07:22:54;16.20;99.90
15455;DHT22;21057;51.024;7.540;2023-05-06T07:25:21;16.20;99.90
15455;DHT22;21057;51.024;7.540;2023-05-06T07:27:51;16.30;99.90
15455;DHT22;21057;51.024;7.540;2023-05-06T07:30:21;16.50;99.90
15455;DHT22;21057;51.024;7.540;2023-05-06T07:32:48;16.60;99.90
15455;DHT22;21057;51.024;7.540;2023-05-06T07:35:15;17.30;99.90
15455;DHT22;21057;51.024;7.540;2023-05-06T07:37:44;17.60;99.90
15455;DHT22;21057;51.024;7.540;2023-05-06T07:40:13;18.00;99.90
15455;DHT22;21057;51.024;7.540;2023-05-06T07:42:40;18.20;99.90
15455;DHT22;21057;51.024;7.540;2023-05-06T07:45:07;18.60;99.90
15455;DHT22;21057;51.024;7.540;2023-05-06T07:47:34;18.70;99.90
15455;DHT22;21057;51.024;7.540;2023-05-06T07:50:01;18.80;99.90
15455;DHT22;21057;51.024;7.540;2023-05-06T07:52:29;19.00;99.90
15455;DHT22;21057;51.024;7.540;2023-05-06T07:54:56;19.40;99.90
15455;DHT22;21057;51.024;7.540;2023-05-06T07:57:24;19.70;99.90
15455;DHT22;21057;51.024;7.540;2023-05-06T07:59:51;20.00;99.90
15455;DHT22;21057;51.024;7.540;2023-05-06T08:02:18;20.10;99.90
15455;DHT22;21057;51.024;7.540;2023-05-06T08:04:45;20.50;99.90
15455;DHT22;21057;51.024;7.540;2023-05-06T08:07:12;20.70;99.90
15455;DHT22;21057;51.024;7.540;2023-05-06T08:09:39;20.80;99.90
15455;DHT22;21057;51.024;7.540;2023-05-06T08:12:06;20.60;99.90
15455;DHT22;21057;51.024;7.540;2023-05-06T08:14:34;20.50;99.90
15455;DHT22;21057;51.024;7.540;2023-05-06T08:17:01;20.50;99.90
15455;DHT22;21057;51.024;7.540;2023-05-06T08:19:28;20.80;99.90
15455;DHT22;21057;51.024;7.540;2023-05-06T08:21:55;21.10;99.90
15455;DHT22;21057;51.024;7.540;2023-05-06T08:24:23;21.40;99.90
15455;DHT22;21057;51.024;7.540;2023-05-06T08:26:53;21.50;99.90
15455;DHT22;21057;51.024;7.540;2023-05-06T08:29:19;22.10;99.90
15455;DHT22;21057;51.024;7.540;2023-05-06T08:31:48;21.80;99.90
15455;DHT22;21057;51.024;7.540;2023-05-06T08:34:15;22.10;99.90
15455;DHT22;21057;51.024;7.540;2023-05-06T08:36:43;22.30;99.90
15455;DHT22;21057;51.024;7.540;2023-05-06T08:39:10;22.90;99.90
15455;DHT22;21057;51.024;7.540;2023-05-06T08:41:37;22.50;99.90
15455;DHT22;21057;51.024;7.540;2023-05-06T08:44:06;22.80;99.90
15455;DHT22;21057;51.024;7.540;2023-05-06T08:46:33;22.50;99.90
15455;DHT22;21057;51.024;7.540;2023-05-06T08:49:02;21.80;99.90
15455;DHT22;21057;51.024;7.540;2023-05-06T08:51:29;21.30;99.90
15455;DHT22;21057;51.024;7.540;2023-05-06T08:53:59;21.10;99.90
15455;DHT22;21057;51.024;7.540;2023-05-06T08:56:29;21.50;99.90
15455;DHT22;21057;51.024;7.540;2023-05-06T08:58:56;21.70;99.90
15455;DHT22;21057;51.024;7.540;2023-05-06T09:01:24;22.30;99.90
15455;DHT22;21057;51.024;7.540;2023-05-06T09:03:52;23.00;99.90
15455;DHT22;21057;51.024;7.540;2023-05-06T09:06:21;23.20;99.90
15455;DHT22;21057;51.024;7.540;2023-05-06T09:08:48;23.30;99.90
15455;DHT22;21057;51.024;7.540;2023-05-06T09:11:19;23.50;99.90
15455;DHT22;21057;51.024;7.540;2023-05-06T09:13:46;23.10;99.90
15455;DHT22;21057;51.024;7.540;2023-05-06T09:16:26;22.90;99.90
15455;DHT22;21057;51.024;7.540;2023-05-06T09:18:53;23.70;99.90
15455;DHT22;21057;51.024;7.540;2023-05-06T09:21:28;23.90;98.90
15455;DHT22;21057;51.024;7.540;2023-05-06T09:23:56;24.40;96.10
15455;DHT22;21057;51.024;7.540;2023-05-06T09:26:23;24.00;96.20
15455;DHT22;21057;51.024;7.540;2023-05-06T09:28:51;24.30;97.40
15455;DHT22;21057;51.024;7.540;2023-05-06T09:31:17;24.60;97.50
15455;DHT22;21057;51.024;7.540;2023-05-06T09:33:44;24.60;95.60
15455;DHT22;21057;51.024;7.540;2023-05-06T09:36:11;24.30;94.10
15455;DHT22;21057;51.024;7.540;2023-05-06T09:38:40;23.20;94.40
15455;DHT22;21057;51.024;7.540;2023-05-06T09:41:07;22.70;97.60
15455;DHT22;21057;51.024;7.540;2023-05-06T09:43:35;21.80;99.90
15455;DHT22;21057;51.024;7.540;2023-05-06T09:46:06;22.50;99.90
15455;DHT22;21057;51.024;7.540;2023-05-06T09:48:33;23.40;96.20
15455;DHT22;21057;51.024;7.540;2023-05-06T09:51:02;24.40;93.50
15455;DHT22;21057;51.024;7.540;2023-05-06T09:53:29;25.00;92.00
15455;DHT22;21057;51.024;7.540;2023-05-06T09:55:59;25.00;94.70
15455;DHT22;21057;51.024;7.540;2023-05-06T09:58:29;24.80;91.50
15455;DHT22;21057;51.024;7.540;2023-05-06T10:00:56;24.80;93.40
15455;DHT22;21057;51.024;7.540;2023-05-06T10:03:24;25.40;92.30
15455;DHT22;21057;51.024;7.540;2023-05-06T10:05:52;26.10;92.40
15455;DHT22;21057;51.024;7.540;2023-05-06T10:08:22;25.50;90.50
15455;DHT22;21057;51.024;7.540;2023-05-06T10:10:53;24.90;92.50
15455;DHT22;21057;51.024;7.540;2023-05-06T10:13:22;24.70;92.70
15455;DHT22;21057;51.024;7.540;2023-05-06T10:15:50;23.80;93.30
15455;DHT22;21057;51.024;7.540;2023-05-06T10:18:19;23.50;93.80
15455;DHT22;21057;51.024;7.540;2023-05-06T10:20:47;23.40;95.00
15455;DHT22;21057;51.024;7.540;2023-05-06T10:23:22;23.70;93.60
15455;DHT22;21057;51.024;7.540;2023-05-06T10:25:52;24.20;94.50
15455;DHT22;21057;51.024;7.540;2023-05-06T10:28:21;24.70;93.50
15455;DHT22;21057;51.024;7.540;2023-05-06T10:30:50;24.70;90.40
15455;DHT22;21057;51.024;7.540;2023-05-06T10:33:18;24.50;93.30
15455;DHT22;21057;51.024;7.540;2023-05-06T10:35:54;24.10;92.40
15455;DHT22;21057;51.024;7.540;2023-05-06T10:38:27;24.00;93.30
15455;DHT22;21057;51.024;7.540;2023-05-06T10:40:55;24.30;91.80
15455;DHT22;21057;51.024;7.540;2023-05-06T10:43:26;24.40;92.10
15455;DHT22;21057;51.024;7.540;2023-05-06T10:46:01;24.40;90.40
15455;DHT22;21057;51.024;7.540;2023-05-06T10:48:28;24.50;91.70
15455;DHT22;21057;51.024;7.540;2023-05-06T10:51:19;25.20;92.40
15455;DHT22;21057;51.024;7.540;2023-05-06T10:53:57;25.60;92.60
15455;DHT22;21057;51.024;7.540;2023-05-06T10:56:24;25.90;91.40
15455;DHT22;21057;51.024;7.540;2023-05-06T10:58:53;26.60;92.30
15455;DHT22;21057;51.024;7.540;2023-05-06T11:01:21;27.10;89.50
15455;DHT22;21057;51.024;7.540;2023-05-06T11:03:49;27.30;86.10
15455;DHT22;21057;51.024;7.540;2023-05-06T11:06:38;26.70;83.70
15455;DHT22;21057;51.024;7.540;2023-05-06T11:09:14;25.50;84.70
15455;DHT22;21057;51.024;7.540;2023-05-06T11:11:57;25.10;87.20
15455;DHT22;21057;51.024;7.540;2023-05-06T11:14:27;25.60;83.80
15455;DHT22;21057;51.024;7.540;2023-05-06T11:16:55;26.20;83.00
15455;DHT22;21057;51.024;7.540;2023-05-06T11:19:24;26.40;84.60
15455;DHT22;21057;51.024;7.540;2023-05-06T11:21:52;27.20;85.90
15455;DHT22;21057;51.024;7.540;2023-05-06T11:24:26;27.50;81.60
15455;DHT22;21057;51.024;7.540;2023-05-06T11:26:54;27.50;80.50
15455;DHT22;21057;51.024;7.540;2023-05-06T11:29:21;27.20;79.70
15455;DHT22;21057;51.024;7.540;2023-05-06T11:31:50;27.50;79.50
15455;DHT22;21057;51.024;7.540;2023-05-06T11:34:22;27.20;73.50
15455;DHT22;21057;51.024;7.540;2023-05-06T11:37:02;27.80;83.10
15455;DHT22;21057;51.024;7.540;2023-05-06T11:39:30;28.80;77.40
15455;DHT22;21057;51.024;7.540;2023-05-06T11:41:58;29.20;76.80
15455;DHT22;21057;51.024;7.540;2023-05-06T11:44:36;29.10;68.20
15455;DHT22;21057;51.024;7.540;2023-05-06T11:47:06;29.10;74.30
15455;DHT22;21057;51.024;7.540;2023-05-06T11:49:35;29.10;70.40
15455;DHT22;21057;51.024;7.540;2023-05-06T11:52:03;29.20;68.10
15455;DHT22;21057;51.024;7.540;2023-05-06T11:54:33;29.00;68.60
15455;DHT22;21057;51.024;7.540;2023-05-06T11:57:00;28.80;66.50
15455;DHT22;21057;51.024;7.540;2023-05-06T11:59:29;28.70;68.20
15455;DHT22;21057;51.024;7.540;2023-05-06T12:01:58;29.40;71.00
15455;DHT22;21057;51.024;7.540;2023-05-06T12:04:28;29.10;70.00
15455;DHT22;21057;51.024;7.540;2023-05-06T12:07:04;29.10;64.40
15455;DHT22;21057;51.024;7.540;2023-05-06T12:09:32;28.30;68.20
15455;DHT22;21057;51.024;7.540;2023-05-06T12:12:01;28.00;69.10
15455;DHT22;21057;51.024;7.540;2023-05-06T12:14:28;27.80;69.70
15455;DHT22;21057;51.024;7.540;2023-05-06T12:16:55;27.00;71.30
15455;DHT22;21057;51.024;7.540;2023-05-06T12:19:23;26.90;73.90
15455;DHT22;21057;51.024;7.540;2023-05-06T12:21:52;26.30;74.60
15455;DHT22;21057;51.024;7.540;2023-05-06T12:24:26;25.60;69.70
15455;DHT22;21057;51.024;7.540;2023-05-06T12:26:54;25.20;71.60
15455;DHT22;21057;51.024;7.540;2023-05-06T12:29:32;25.10;80.50
15455;DHT22;21057;51.024;7.540;2023-05-06T12:32:10;25.50;75.50
15455;DHT22;21057;51.024;7.540;2023-05-06T12:34:42;25.30;74.90
15455;DHT22;21057;51.024;7.540;2023-05-06T12:37:25;25.20;76.80
15455;DHT22;21057;51.024;7.540;2023-05-06T12:39:52;25.10;75.30
15455;DHT22;21057;51.024;7.540;2023-05-06T12:42:20;24.30;73.80
15455;DHT22;21057;51.024;7.540;2023-05-06T12:44:47;24.10;77.50
15455;DHT22;21057;51.024;7.540;2023-05-06T12:47:18;24.10;83.10
15455;DHT22;21057;51.024;7.540;2023-05-06T12:49:47;24.00;81.00
15455;DHT22;21057;51.024;7.540;2023-05-06T12:52:15;24.30;77.80
15455;DHT22;21057;51.024;7.540;2023-05-06T12:54:44;24.90;80.20
15455;DHT22;21057;51.024;7.540;2023-05-06T12:57:11;25.60;75.10
15455;DHT22;21057;51.024;7.540;2023-05-06T12:59:38;26.50;72.30
15455;DHT22;21057;51.024;7.540;2023-05-06T13:02:05;26.80;69.00
15455;DHT22;21057;51.024;7.540;2023-05-06T13:04:32;27.20;71.70
15455;DHT22;21057;51.024;7.540;2023-05-06T13:06:59;27.50;71.70
15455;DHT22;21057;51.024;7.540;2023-05-06T13:09:26;27.80;67.00
15455;DHT22;21057;51.024;7.540;2023-05-06T13:11:55;27.90;70.90
15455;DHT22;21057;51.024;7.540;2023-05-06T13:14:22;27.80;69.00
15455;DHT22;21057;51.024;7.540;2023-05-06T13:16:49;27.60;71.80
15455;DHT22;21057;51.024;7.540;2023-05-06T13:19:16;27.80;70.70
15455;DHT22;21057;51.024;7.540;2023-05-06T13:21:42;27.30;67.80
15455;DHT22;21057;51.024;7.540;2023-05-06T13:24:10;27.40;67.60
15455;DHT22;21057;51.024;7.540;2023-05-06T13:26:37;27.00;67.50
15455;DHT22;21057;51.024;7.540;2023-05-06T13:29:05;26.90;68.90
15455;DHT22;21057;51.024;7.540;2023-05-06T13:31:32;27.30;73.20
15455;DHT22;21057;51.024;7.540;2023-05-06T13:33:59;27.30;70.30
15455;DHT22;21057;51.024;7.540;2023-05-06T13:36:26;27.50;65.60
15455;DHT22;21057;51.024;7.540;2023-05-06T13:38:53;27.60;73.50
15455;DHT22;21057;51.024;7.540;2023-05-06T13:41:21;27.70;67.00
15455;DHT22;21057;51.024;7.540;2023-05-06T13:43:49;27.80;64.70
15455;DHT22;21057;51.024;7.540;2023-05-06T13:46:17;27.40;67.80
15455;DHT22;21057;51.024;7.540;2023-05-06T13:48:44;27.80;67.90
15455;DHT22;21057;51.024;7.540;2023-05-06T13:51:11;27.30;62.50
15455;DHT22;21057;51.024;7.540;2023-05-06T13:53:38;27.20;65.30
15455;DHT22;21057;51.024;7.540;2023-05-06T13:56:05;26.40;67.10
15455;DHT22;21057;51.024;7.540;2023-05-06T13:58:32;26.10;69.00
15455;DHT22;21057;51.024;7.540;2023-05-06T14:00:59;25.70;68.10
15455;DHT22;21057;51.024;7.540;2023-05-06T14:03:27;25.90;69.00
15455;DHT22;21057;51.024;7.540;2023-05-06T14:05:54;25.80;68.90
15455;DHT22;21057;51.024;7.540;2023-05-06T14:08:21;25.60;69.80
15455;DHT22;21057;51.024;7.540;2023-05-06T14:10:48;24.80;68.70
15455;DHT22;21057;51.024;7.540;2023-05-06T14:13:14;24.40;71.10
15455;DHT22;21057;51.024;7.540;2023-05-06T14:15:41;24.40;70.50
15455;DHT22;21057;51.024;7.540;2023-05-06T14:18:08;24.60;70.90
15455;DHT22;21057;51.024;7.540;2023-05-06T14:20:36;24.60;73.80
15455;DHT22;21057;51.024;7.540;2023-05-06T14:23:04;24.40;70.60
15455;DHT22;21057;51.024;7.540;2023-05-06T14:25:31;24.10;73.60
15455;DHT22;21057;51.024;7.540;2023-05-06T14:27:58;23.90;72.70
15455;DHT22;21057;51.024;7.540;2023-05-06T14:30:24;23.40;75.50
15455;DHT22;21057;51.024;7.540;2023-05-06T14:32:51;23.50;76.70
15455;DHT22;21057;51.024;7.540;2023-05-06T14:35:18;23.50;77.30
15455;DHT22;21057;51.024;7.540;2023-05-06T14:37:47;23.60;75.60
15455;DHT22;21057;51.024;7.540;2023-05-06T14:40:14;23.60;74.90
15455;DHT22;21057;51.024;7.540;2023-05-06T14:42:41;23.50;77.10
15455;DHT22;21057;51.024;7.540;2023-05-06T14:45:09;23.20;76.40
15455;DHT22;21057;51.024;7.540;2023-05-06T14:47:37;23.00;77.80
15455;DHT22;21057;51.024;7.540;2023-05-06T14:50:05;22.90;79.30
15455;DHT22;21057;51.024;7.540;2023-05-06T14:52:33;22.90;82.80
15455;DHT22;21057;51.024;7.540;2023-05-06T14:55:02;22.50;81.00
15455;DHT22;21057;51.024;7.540;2023-05-06T14:57:29;22.50;81.10
15455;DHT22;21057;51.024;7.540;2023-05-06T14:59:56;21.90;84.70
15455;DHT22;21057;51.024;7.540;2023-05-06T15:02:23;20.60;92.50
15455;DHT22;21057;51.024;7.540;2023-05-06T15:04:50;19.60;97.40
15455;DHT22;21057;51.024;7.540;2023-05-06T15:07:17;19.00;99.90
15455;DHT22;21057;51.024;7.540;2023-05-06T15:09:43;18.40;99.90
15455;DHT22;21057;51.024;7.540;2023-05-06T15:12:12;17.90;99.90
15455;DHT22;21057;51.024;7.540;2023-05-06T15:14:39;17.90;99.90
15455;DHT22;21057;51.024;7.540;2023-05-06T15:17:06;18.00;99.90
15455;DHT22;21057;51.024;7.540;2023-05-06T15:19:32;18.30;99.90
15455;DHT22;21057;51.024;7.540;2023-05-06T15:21:59;18.50;99.90
15455;DHT22;21057;51.024;7.540;2023-05-06T15:24:26;18.50;99.90
15455;DHT22;21057;51.024;7.540;2023-05-06T15:26:53;18.60;99.90
15455;DHT22;21057;51.024;7.540;2023-05-06T15:29:21;18.80;99.90
15455;DHT22;21057;51.024;7.540;2023-05-06T15:31:49;18.80;99.90
15455;DHT22;21057;51.024;7.540;2023-05-06T15:34:16;18.50;99.90
15455;DHT22;21057;51.024;7.540;2023-05-06T15:36:49;18.20;99.90